sensor_id;sensor_type;location;lat;lon;timestamp;P1;durP1;ratioP1;P2;durP2;ratioP2
80823;SDS011;70538;59.122;37.876;2023-07-13T00:00:57;7.32;;;2.70;;
80823;SDS011;70538;59.122;37.876;2023-07-13T00:03:25;7.13;;;1.85;;
80823;SDS011;70538;59.122;37.876;2023-07-13T00:05:59;5.00;;;1.33;;
80823;SDS011;70538;59.122;37.876;2023-07-13T00:08:30;7.70;;;1.70;;
80823;SDS011;70538;59.122;37.876;2023-07-13T00:11:01;8.63;;;2.33;;
80823;SDS011;70538;59.122;37.876;2023-07-13T00:13:29;5.47;;;1.90;;
80823;SDS011;70538;59.122;37.876;2023-07-13T00:15:58;7.28;;;1.95;;
80823;SDS011;70538;59.122;37.876;2023-07-13T00:18:26;8.48;;;3.13;;
80823;SDS011;70538;59.122;37.876;2023-07-13T00:20:57;6.57;;;2.85;;
80823;SDS011;70538;59.122;37.876;2023-07-13T00:23:36;7.93;;;3.10;;
80823;SDS011;70538;59.122;37.876;2023-07-13T00:26:08;7.65;;;2.92;;
80823;SDS011;70538;59.122;37.876;2023-07-13T00:28:38;7.30;;;2.70;;
80823;SDS011;70538;59.122;37.876;2023-07-13T00:31:07;10.57;;;3.03;;
80823;SDS011;70538;59.122;37.876;2023-07-13T00:33:37;8.55;;;2.42;;
80823;SDS011;70538;59.122;37.876;2023-07-13T00:36:05;10.33;;;3.10;;
80823;SDS011;70538;59.122;37.876;2023-07-13T00:38:33;14.10;;;4.72;;
80823;SDS011;70538;59.122;37.876;2023-07-13T00:41:02;8.18;;;2.33;;
80823;SDS011;70538;59.122;37.876;2023-07-13T00:43:31;8.98;;;3.03;;
80823;SDS011;70538;59.122;37.876;2023-07-13T00:46:17;10.85;;;4.78;;
80823;SDS011;70538;59.122;37.876;2023-07-13T00:48:57;6.93;;;2.23;;
80823;SDS011;70538;59.122;37.876;2023-07-13T00:51:30;7.38;;;2.22;;
80823;SDS011;70538;59.122;37.876;2023-07-13T00:54:05;6.30;;;1.70;;
80823;SDS011;70538;59.122;37.876;2023-07-13T00:56:39;7.97;;;2.83;;
80823;SDS011;70538;59.122;37.876;2023-07-13T00:59:08;8.75;;;2.92;;
80823;SDS011;70538;59.122;37.876;2023-07-13T01:01:39;7.97;;;2.40;;
80823;SDS011;70538;59.122;37.876;2023-07-13T01:04:07;8.40;;;2.53;;
80823;SDS011;70538;59.122;37.876;2023-07-13T01:06:36;5.53;;;1.48;;
80823;SDS011;70538;59.122;37.876;2023-07-13T01:09:06;7.47;;;2.38;;
80823;SDS011;70538;59.122;37.876;2023-07-13T01:11:35;14.45;;;4.47;;
80823;SDS011;70538;59.122;37.876;2023-07-13T01:14:03;9.63;;;2.73;;
80823;SDS011;70538;59.122;37.876;2023-07-13T01:16:32;6.10;;;1.88;;
80823;SDS011;70538;59.122;37.876;2023-07-13T01:19:03;6.47;;;2.30;;
80823;SDS011;70538;59.122;37.876;2023-07-13T01:21:40;6.38;;;1.75;;
80823;SDS011;70538;59.122;37.876;2023-07-13T01:24:10;7.18;;;1.30;;
80823;SDS011;70538;59.122;37.876;2023-07-13T01:26:38;6.07;;;1.57;;
80823;SDS011;70538;59.122;37.876;2023-07-13T01:29:06;6.05;;;1.95;;
80823;SDS011;70538;59.122;37.876;2023-07-13T01:31:35;12.02;;;2.25;;
80823;SDS011;70538;59.122;37.876;2023-07-13T01:34:03;5.63;;;1.50;;
80823;SDS011;70538;59.122;37.876;2023-07-13T01:36:31;7.70;;;1.80;;
80823;SDS011;70538;59.122;37.876;2023-07-13T01:38:59;5.53;;;1.50;;
80823;SDS011;70538;59.122;37.876;2023-07-13T01:41:27;10.73;;;2.33;;
80823;SDS011;70538;59.122;37.876;2023-07-13T01:44:00;10.88;;;1.95;;
80823;SDS011;70538;59.122;37.876;2023-07-13T01:46:28;7.82;;;1.55;;
80823;SDS011;70538;59.122;37.876;2023-07-13T01:48:56;7.93;;;2.35;;
80823;SDS011;70538;59.122;37.876;2023-07-13T01:51:24;5.73;;;1.63;;
80823;SDS011;70538;59.122;37.876;2023-07-13T01:53:52;8.35;;;2.22;;
80823;SDS011;70538;59.122;37.876;2023-07-13T01:56:20;4.80;;;1.00;;
80823;SDS011;70538;59.122;37.876;2023-07-13T01:58:48;4.50;;;1.08;;
80823;SDS011;70538;59.122;37.876;2023-07-13T02:01:16;9.35;;;1.73;;
80823;SDS011;70538;59.122;37.876;2023-07-13T02:03:44;6.87;;;1.13;;
80823;SDS011;70538;59.122;37.876;2023-07-13T02:06:13;5.40;;;1.15;;
80823;SDS011;70538;59.122;37.876;2023-07-13T02:08:41;5.07;;;1.17;;
80823;SDS011;70538;59.122;37.876;2023-07-13T02:11:10;7.05;;;1.38;;
80823;SDS011;70538;59.122;37.876;2023-07-13T02:13:38;6.05;;;1.58;;
80823;SDS011;70538;59.122;37.876;2023-07-13T02:16:06;8.27;;;0.77;;
80823;SDS011;70538;59.122;37.876;2023-07-13T02:18:35;10.02;;;1.55;;
80823;SDS011;70538;59.122;37.876;2023-07-13T02:21:03;4.70;;;0.90;;
80823;SDS011;70538;59.122;37.876;2023-07-13T02:23:31;6.35;;;1.05;;
80823;SDS011;70538;59.122;37.876;2023-07-13T02:26:01;6.22;;;1.30;;
80823;SDS011;70538;59.122;37.876;2023-07-13T02:28:30;12.70;;;1.40;;
80823;SDS011;70538;59.122;37.876;2023-07-13T02:31:08;7.30;;;1.20;;
80823;SDS011;70538;59.122;37.876;2023-07-13T02:33:39;7.95;;;1.00;;
80823;SDS011;70538;59.122;37.876;2023-07-13T02:36:07;9.70;;;1.60;;
80823;SDS011;70538;59.122;37.876;2023-07-13T02:38:36;6.90;;;1.10;;
80823;SDS011;70538;59.122;37.876;2023-07-13T02:41:05;6.27;;;1.17;;
80823;SDS011;70538;59.122;37.876;2023-07-13T02:43:36;7.10;;;1.23;;
80823;SDS011;70538;59.122;37.876;2023-07-13T02:46:04;5.90;;;0.70;;
80823;SDS011;70538;59.122;37.876;2023-07-13T02:48:37;8.50;;;1.00;;
80823;SDS011;70538;59.122;37.876;2023-07-13T02:51:06;7.03;;;1.10;;
80823;SDS011;70538;59.122;37.876;2023-07-13T02:53:35;5.40;;;0.83;;
80823;SDS011;70538;59.122;37.876;2023-07-13T02:56:04;8.38;;;1.20;;
80823;SDS011;70538;59.122;37.876;2023-07-13T02:58:33;3.70;;;0.65;;
80823;SDS011;70538;59.122;37.876;2023-07-13T03:01:07;5.97;;;1.10;;
80823;SDS011;70538;59.122;37.876;2023-07-13T03:03:37;10.68;;;1.23;;
80823;SDS011;70538;59.122;37.876;2023-07-13T03:06:05;5.37;;;0.90;;
80823;SDS011;70538;59.122;37.876;2023-07-13T03:08:36;4.82;;;1.20;;
80823;SDS011;70538;59.122;37.876;2023-07-13T03:11:24;3.28;;;0.70;;
80823;SDS011;70538;59.122;37.876;2023-07-13T03:13:54;2.60;;;0.63;;
80823;SDS011;70538;59.122;37.876;2023-07-13T03:16:22;12.88;;;1.70;;
80823;SDS011;70538;59.122;37.876;2023-07-13T03:18:51;3.33;;;0.90;;
80823;SDS011;70538;59.122;37.876;2023-07-13T03:21:19;9.07;;;1.73;;
80823;SDS011;70538;59.122;37.876;2023-07-13T03:23:47;15.10;;;1.15;;
80823;SDS011;70538;59.122;37.876;2023-07-13T03:26:16;8.13;;;1.02;;
80823;SDS011;70538;59.122;37.876;2023-07-13T03:28:46;3.15;;;0.73;;
80823;SDS011;70538;59.122;37.876;2023-07-13T03:31:19;7.83;;;0.87;;
80823;SDS011;70538;59.122;37.876;2023-07-13T03:33:52;11.20;;;1.35;;
80823;SDS011;70538;59.122;37.876;2023-07-13T03:36:21;3.95;;;0.82;;
80823;SDS011;70538;59.122;37.876;2023-07-13T03:38:51;4.40;;;0.80;;
80823;SDS011;70538;59.122;37.876;2023-07-13T03:41:21;4.97;;;0.93;;
80823;SDS011;70538;59.122;37.876;2023-07-13T03:43:50;11.33;;;1.30;;
80823;SDS011;70538;59.122;37.876;2023-07-13T03:46:19;10.20;;;1.10;;
80823;SDS011;70538;59.122;37.876;2023-07-13T03:48:47;4.95;;;0.90;;
80823;SDS011;70538;59.122;37.876;2023-07-13T03:51:16;8.38;;;1.23;;
80823;SDS011;70538;59.122;37.876;2023-07-13T03:53:45;5.97;;;1.02;;
80823;SDS011;70538;59.122;37.876;2023-07-13T03:56:15;7.97;;;0.87;;
80823;SDS011;70538;59.122;37.876;2023-07-13T03:58:46;16.17;;;1.58;;
80823;SDS011;70538;59.122;37.876;2023-07-13T04:01:15;13.18;;;1.25;;
80823;SDS011;70538;59.122;37.876;2023-07-13T04:03:45;7.47;;;0.82;;
80823;SDS011;70538;59.122;37.876;2023-07-13T04:06:17;8.80;;;1.20;;
80823;SDS011;70538;59.122;37.876;2023-07-13T04:08:51;8.47;;;1.13;;
80823;SDS011;70538;59.122;37.876;2023-07-13T04:11:21;5.53;;;1.00;;
80823;SDS011;70538;59.122;37.876;2023-07-13T04:13:50;9.98;;;1.15;;
80823;SDS011;70538;59.122;37.876;2023-07-13T04:16:19;7.18;;;1.40;;
80823;SDS011;70538;59.122;37.876;2023-07-13T04:18:48;7.50;;;0.90;;
80823;SDS011;70538;59.122;37.876;2023-07-13T04:21:17;7.17;;;1.00;;
80823;SDS011;70538;59.122;37.876;2023-07-13T04:23:45;9.52;;;0.98;;
80823;SDS011;70538;59.122;37.876;2023-07-13T04:26:13;6.25;;;0.82;;
80823;SDS011;70538;59.122;37.876;2023-07-13T04:28:41;9.30;;;1.27;;
80823;SDS011;70538;59.122;37.876;2023-07-13T04:31:09;8.20;;;1.00;;
80823;SDS011;70538;59.122;37.876;2023-07-13T04:33:37;8.37;;;1.10;;
80823;SDS011;70538;59.122;37.876;2023-07-13T04:36:05;6.28;;;0.90;;
80823;SDS011;70538;59.122;37.876;2023-07-13T04:38:37;9.55;;;0.90;;
80823;SDS011;70538;59.122;37.876;2023-07-13T04:41:06;8.07;;;0.95;;
80823;SDS011;70538;59.122;37.876;2023-07-13T04:43:35;4.85;;;0.90;;
80823;SDS011;70538;59.122;37.876;2023-07-13T04:46:07;6.67;;;0.80;;
80823;SDS011;70538;59.122;37.876;2023-07-13T04:48:39;19.02;;;1.27;;
80823;SDS011;70538;59.122;37.876;2023-07-13T04:51:07;9.90;;;1.98;;
80823;SDS011;70538;59.122;37.876;2023-07-13T04:53:35;9.30;;;1.50;;
80823;SDS011;70538;59.122;37.876;2023-07-13T04:56:04;6.35;;;0.90;;
80823;SDS011;70538;59.122;37.876;2023-07-13T04:58:32;8.17;;;0.80;;
80823;SDS011;70538;59.122;37.876;2023-07-13T05:01:05;11.60;;;1.90;;
80823;SDS011;70538;59.122;37.876;2023-07-13T05:03:34;6.25;;;1.08;;
80823;SDS011;70538;59.122;37.876;2023-07-13T05:06:04;6.93;;;1.10;;
80823;SDS011;70538;59.122;37.876;2023-07-13T05:08:33;4.13;;;1.05;;
80823;SDS011;70538;59.122;37.876;2023-07-13T05:11:02;4.43;;;1.07;;
80823;SDS011;70538;59.122;37.876;2023-07-13T05:13:31;7.30;;;1.00;;
80823;SDS011;70538;59.122;37.876;2023-07-13T05:16:04;15.68;;;2.72;;
80823;SDS011;70538;59.122;37.876;2023-07-13T05:18:35;9.68;;;1.45;;
80823;SDS011;70538;59.122;37.876;2023-07-13T05:21:08;3.72;;;0.80;;
80823;SDS011;70538;59.122;37.876;2023-07-13T05:23:38;3.63;;;0.80;;
80823;SDS011;70538;59.122;37.876;2023-07-13T05:26:09;4.82;;;0.80;;
80823;SDS011;70538;59.122;37.876;2023-07-13T05:28:38;5.13;;;1.60;;
80823;SDS011;70538;59.122;37.876;2023-07-13T05:31:07;3.40;;;0.88;;
80823;SDS011;70538;59.122;37.876;2023-07-13T05:33:37;6.10;;;1.33;;
80823;SDS011;70538;59.122;37.876;2023-07-13T05:36:05;4.13;;;1.20;;
80823;SDS011;70538;59.122;37.876;2023-07-13T05:38:34;3.58;;;1.00;;
80823;SDS011;70538;59.122;37.876;2023-07-13T05:41:02;6.68;;;1.40;;
80823;SDS011;70538;59.122;37.876;2023-07-13T05:43:32;3.53;;;0.80;;
80823;SDS011;70538;59.122;37.876;2023-07-13T05:46:00;3.20;;;0.60;;
80823;SDS011;70538;59.122;37.876;2023-07-13T05:48:28;9.17;;;1.40;;
80823;SDS011;70538;59.122;37.876;2023-07-13T05:50:56;5.95;;;1.08;;
80823;SDS011;70538;59.122;37.876;2023-07-13T05:53:24;4.93;;;0.90;;
80823;SDS011;70538;59.122;37.876;2023-07-13T05:55:53;6.75;;;0.80;;
80823;SDS011;70538;59.122;37.876;2023-07-13T05:58:22;12.05;;;2.00;;
80823;SDS011;70538;59.122;37.876;2023-07-13T06:00:57;6.07;;;1.40;;
80823;SDS011;70538;59.122;37.876;2023-07-13T06:03:27;5.03;;;0.88;;
80823;SDS011;70538;59.122;37.876;2023-07-13T06:05:55;16.77;;;2.25;;
80823;SDS011;70538;59.122;37.876;2023-07-13T06:08:23;6.55;;;1.05;;
80823;SDS011;70538;59.122;37.876;2023-07-13T06:10:51;11.00;;;1.10;;
80823;SDS011;70538;59.122;37.876;2023-07-13T06:13:21;10.47;;;1.27;;
80823;SDS011;70538;59.122;37.876;2023-07-13T06:15:49;12.20;;;1.38;;
80823;SDS011;70538;59.122;37.876;2023-07-13T06:18:17;8.73;;;1.25;;
80823;SDS011;70538;59.122;37.876;2023-07-13T06:20:45;10.70;;;1.30;;
80823;SDS011;70538;59.122;37.876;2023-07-13T06:23:13;8.60;;;1.20;;
80823;SDS011;70538;59.122;37.876;2023-07-13T06:25:42;5.53;;;0.90;;
80823;SDS011;70538;59.122;37.876;2023-07-13T06:28:11;9.23;;;1.35;;
80823;SDS011;70538;59.122;37.876;2023-07-13T06:30:39;7.63;;;1.10;;
80823;SDS011;70538;59.122;37.876;2023-07-13T06:33:07;8.10;;;1.20;;
80823;SDS011;70538;59.122;37.876;2023-07-13T06:35:35;5.88;;;1.33;;
80823;SDS011;70538;59.122;37.876;2023-07-13T06:38:04;13.13;;;1.90;;
80823;SDS011;70538;59.122;37.876;2023-07-13T06:40:32;8.18;;;1.27;;
80823;SDS011;70538;59.122;37.876;2023-07-13T06:43:00;7.35;;;1.40;;
80823;SDS011;70538;59.122;37.876;2023-07-13T06:45:28;6.65;;;0.95;;
80823;SDS011;70538;59.122;37.876;2023-07-13T06:47:56;8.32;;;0.82;;
80823;SDS011;70538;59.122;37.876;2023-07-13T06:50:24;8.07;;;1.13;;
80823;SDS011;70538;59.122;37.876;2023-07-13T06:52:52;10.05;;;1.17;;
80823;SDS011;70538;59.122;37.876;2023-07-13T06:55:20;9.35;;;1.10;;
80823;SDS011;70538;59.122;37.876;2023-07-13T06:57:48;8.95;;;1.00;;
80823;SDS011;70538;59.122;37.876;2023-07-13T07:00:16;7.97;;;0.90;;
80823;SDS011;70538;59.122;37.876;2023-07-13T07:02:44;6.13;;;1.57;;
80823;SDS011;70538;59.122;37.876;2023-07-13T07:05:13;6.05;;;1.05;;
80823;SDS011;70538;59.122;37.876;2023-07-13T07:07:41;5.40;;;1.40;;
80823;SDS011;70538;59.122;37.876;2023-07-13T07:10:09;5.47;;;0.90;;
80823;SDS011;70538;59.122;37.876;2023-07-13T07:12:37;2.75;;;0.65;;
80823;SDS011;70538;59.122;37.876;2023-07-13T07:15:05;6.80;;;1.50;;
80823;SDS011;70538;59.122;37.876;2023-07-13T07:17:33;6.18;;;1.10;;
80823;SDS011;70538;59.122;37.876;2023-07-13T07:20:01;4.50;;;1.08;;
80823;SDS011;70538;59.122;37.876;2023-07-13T07:22:31;3.38;;;0.68;;
80823;SDS011;70538;59.122;37.876;2023-07-13T07:25:00;7.32;;;1.30;;
80823;SDS011;70538;59.122;37.876;2023-07-13T07:27:28;4.60;;;1.00;;
80823;SDS011;70538;59.122;37.876;2023-07-13T07:29:59;11.45;;;1.60;;
80823;SDS011;70538;59.122;37.876;2023-07-13T07:32:32;2.97;;;0.77;;
80823;SDS011;70538;59.122;37.876;2023-07-13T07:35:03;8.77;;;1.00;;
80823;SDS011;70538;59.122;37.876;2023-07-13T07:37:32;8.93;;;1.73;;
80823;SDS011;70538;59.122;37.876;2023-07-13T07:40:02;7.30;;;0.90;;
80823;SDS011;70538;59.122;37.876;2023-07-13T07:42:34;9.57;;;1.35;;
80823;SDS011;70538;59.122;37.876;2023-07-13T07:45:02;6.80;;;1.33;;
80823;SDS011;70538;59.122;37.876;2023-07-13T07:47:31;16.23;;;1.75;;
80823;SDS011;70538;59.122;37.876;2023-07-13T07:49:59;8.38;;;0.90;;
80823;SDS011;70538;59.122;37.876;2023-07-13T07:52:30;9.87;;;1.23;;
80823;SDS011;70538;59.122;37.876;2023-07-13T07:54:58;9.10;;;2.13;;
80823;SDS011;70538;59.122;37.876;2023-07-13T07:57:30;5.15;;;1.25;;
80823;SDS011;70538;59.122;37.876;2023-07-13T08:00:18;5.30;;;1.80;;
80823;SDS011;70538;59.122;37.876;2023-07-13T08:02:49;5.40;;;1.77;;
80823;SDS011;70538;59.122;37.876;2023-07-13T08:05:21;6.00;;;2.00;;
80823;SDS011;70538;59.122;37.876;2023-07-13T08:08:05;3.13;;;0.85;;
80823;SDS011;70538;59.122;37.876;2023-07-13T08:10:34;8.20;;;1.40;;
80823;SDS011;70538;59.122;37.876;2023-07-13T08:13:04;20.80;;;1.75;;
80823;SDS011;70538;59.122;37.876;2023-07-13T08:15:35;7.25;;;1.00;;
80823;SDS011;70538;59.122;37.876;2023-07-13T08:18:04;14.83;;;1.47;;
80823;SDS011;70538;59.122;37.876;2023-07-13T08:20:32;17.48;;;2.10;;
80823;SDS011;70538;59.122;37.876;2023-07-13T08:23:01;10.20;;;2.22;;
80823;SDS011;70538;59.122;37.876;2023-07-13T08:25:28;7.57;;;1.23;;
80823;SDS011;70538;59.122;37.876;2023-07-13T08:27:56;14.48;;;2.20;;
80823;SDS011;70538;59.122;37.876;2023-07-13T08:30:24;12.43;;;2.10;;
80823;SDS011;70538;59.122;37.876;2023-07-13T08:32:53;10.13;;;2.10;;
80823;SDS011;70538;59.122;37.876;2023-07-13T08:35:21;12.75;;;1.85;;
80823;SDS011;70538;59.122;37.876;2023-07-13T08:37:49;9.35;;;1.80;;
80823;SDS011;70538;59.122;37.876;2023-07-13T08:40:17;9.15;;;1.60;;
80823;SDS011;70538;59.122;37.876;2023-07-13T08:42:54;8.80;;;1.60;;
80823;SDS011;70538;59.122;37.876;2023-07-13T08:45:46;13.52;;;1.60;;
80823;SDS011;70538;59.122;37.876;2023-07-13T08:48:34;4.93;;;1.13;;
80823;SDS011;70538;59.122;37.876;2023-07-13T08:54:26;4.35;;;0.95;;
80823;SDS011;70538;59.122;37.876;2023-07-13T08:56:58;5.73;;;1.10;;
80823;SDS011;70538;59.122;37.876;2023-07-13T08:59:30;8.63;;;1.60;;
80823;SDS011;70538;59.122;37.876;2023-07-13T09:04:34;10.27;;;1.80;;
80823;SDS011;70538;59.122;37.876;2023-07-13T09:10:08;8.73;;;1.00;;
80823;SDS011;70538;59.122;37.876;2023-07-13T09:15:34;11.25;;;2.22;;
80823;SDS011;70538;59.122;37.876;2023-07-13T09:18:08;7.97;;;1.48;;
80823;SDS011;70538;59.122;37.876;2023-07-13T09:20:50;9.40;;;1.52;;
80823;SDS011;70538;59.122;37.876;2023-07-13T09:23:22;11.07;;;1.57;;
80823;SDS011;70538;59.122;37.876;2023-07-13T09:25:58;2.85;;;0.60;;
80823;SDS011;70538;59.122;37.876;2023-07-13T09:28:37;9.65;;;1.65;;
80823;SDS011;70538;59.122;37.876;2023-07-13T09:31:11;13.20;;;2.03;;
80823;SDS011;70538;59.122;37.876;2023-07-13T09:33:43;9.63;;;2.15;;
80823;SDS011;70538;59.122;37.876;2023-07-13T09:36:24;7.83;;;2.07;;
80823;SDS011;70538;59.122;37.876;2023-07-13T09:38:58;5.57;;;1.30;;
80823;SDS011;70538;59.122;37.876;2023-07-13T09:41:45;7.22;;;0.98;;
80823;SDS011;70538;59.122;37.876;2023-07-13T09:44:27;12.40;;;1.65;;
80823;SDS011;70538;59.122;37.876;2023-07-13T09:47:00;4.95;;;0.93;;
80823;SDS011;70538;59.122;37.876;2023-07-13T09:49:33;9.37;;;1.97;;
80823;SDS011;70538;59.122;37.876;2023-07-13T09:52:04;12.15;;;1.83;;
80823;SDS011;70538;59.122;37.876;2023-07-13T09:54:34;15.15;;;1.85;;
80823;SDS011;70538;59.122;37.876;2023-07-13T09:57:13;18.35;;;1.80;;
80823;SDS011;70538;59.122;37.876;2023-07-13T09:59:48;6.97;;;1.27;;
80823;SDS011;70538;59.122;37.876;2023-07-13T10:02:31;15.90;;;2.03;;
80823;SDS011;70538;59.122;37.876;2023-07-13T10:05:02;11.15;;;1.58;;
80823;SDS011;70538;59.122;37.876;2023-07-13T10:07:32;4.80;;;1.00;;
80823;SDS011;70538;59.122;37.876;2023-07-13T10:10:13;14.55;;;1.80;;
80823;SDS011;70538;59.122;37.876;2023-07-13T10:12:46;4.95;;;1.33;;
80823;SDS011;70538;59.122;37.876;2023-07-13T10:15:16;6.60;;;0.90;;
80823;SDS011;70538;59.122;37.876;2023-07-13T10:17:52;6.63;;;1.00;;
80823;SDS011;70538;59.122;37.876;2023-07-13T10:20:23;9.57;;;1.35;;
80823;SDS011;70538;59.122;37.876;2023-07-13T10:23:00;17.50;;;2.80;;
80823;SDS011;70538;59.122;37.876;2023-07-13T10:25:33;10.35;;;1.52;;
80823;SDS011;70538;59.122;37.876;2023-07-13T10:28:09;7.50;;;1.50;;
80823;SDS011;70538;59.122;37.876;2023-07-13T10:30:43;4.88;;;1.08;;
80823;SDS011;70538;59.122;37.876;2023-07-13T10:33:15;9.88;;;1.50;;
80823;SDS011;70538;59.122;37.876;2023-07-13T10:35:43;10.18;;;1.55;;
80823;SDS011;70538;59.122;37.876;2023-07-13T10:38:14;7.95;;;3.42;;
80823;SDS011;70538;59.122;37.876;2023-07-13T10:40:50;5.77;;;1.43;;
80823;SDS011;70538;59.122;37.876;2023-07-13T10:43:50;7.60;;;1.58;;
80823;SDS011;70538;59.122;37.876;2023-07-13T10:46:22;8.82;;;2.97;;
80823;SDS011;70538;59.122;37.876;2023-07-13T10:48:56;17.38;;;3.65;;
80823;SDS011;70538;59.122;37.876;2023-07-13T10:51:27;13.80;;;4.72;;
80823;SDS011;70538;59.122;37.876;2023-07-13T10:54:14;10.23;;;2.53;;
80823;SDS011;70538;59.122;37.876;2023-07-13T10:56:49;13.70;;;2.85;;
80823;SDS011;70538;59.122;37.876;2023-07-13T10:59:23;18.33;;;3.95;;
80823;SDS011;70538;59.122;37.876;2023-07-13T11:01:58;10.38;;;2.20;;
80823;SDS011;70538;59.122;37.876;2023-07-13T11:04:41;12.20;;;2.72;;
80823;SDS011;70538;59.122;37.876;2023-07-13T11:07:28;4.60;;;1.27;;
80823;SDS011;70538;59.122;37.876;2023-07-13T11:10:00;6.50;;;2.15;;
80823;SDS011;70538;59.122;37.876;2023-07-13T11:15:26;12.10;;;3.25;;
80823;SDS011;70538;59.122;37.876;2023-07-13T11:17:59;22.83;;;3.58;;
80823;SDS011;70538;59.122;37.876;2023-07-13T11:20:35;16.57;;;4.33;;
80823;SDS011;70538;59.122;37.876;2023-07-13T11:25:45;13.18;;;3.17;;
80823;SDS011;70538;59.122;37.876;2023-07-13T11:30:54;6.15;;;1.60;;
80823;SDS011;70538;59.122;37.876;2023-07-13T11:36:07;8.65;;;2.55;;
80823;SDS011;70538;59.122;37.876;2023-07-13T11:39:24;17.98;;;4.00;;
80823;SDS011;70538;59.122;37.876;2023-07-13T11:41:44;22.75;;;3.55;;
80823;SDS011;70538;59.122;37.876;2023-07-13T11:44:17;10.07;;;2.28;;
80823;SDS011;70538;59.122;37.876;2023-07-13T11:46:51;6.83;;;1.60;;
80823;SDS011;70538;59.122;37.876;2023-07-13T11:49:23;6.53;;;1.55;;
80823;SDS011;70538;59.122;37.876;2023-07-13T11:51:54;16.67;;;3.03;;
80823;SDS011;70538;59.122;37.876;2023-07-13T11:54:25;13.90;;;2.60;;
80823;SDS011;70538;59.122;37.876;2023-07-13T11:56:58;14.18;;;2.67;;
80823;SDS011;70538;59.122;37.876;2023-07-13T11:59:29;13.03;;;1.73;;
80823;SDS011;70538;59.122;37.876;2023-07-13T12:01:59;5.72;;;1.42;;
80823;SDS011;70538;59.122;37.876;2023-07-13T12:04:29;7.93;;;1.83;;
80823;SDS011;70538;59.122;37.876;2023-07-13T12:07:04;8.13;;;1.83;;
80823;SDS011;70538;59.122;37.876;2023-07-13T12:09:36;13.52;;;2.80;;
80823;SDS011;70538;59.122;37.876;2023-07-13T12:12:08;12.03;;;2.50;;
80823;SDS011;70538;59.122;37.876;2023-07-13T12:14:44;11.60;;;2.40;;
80823;SDS011;70538;59.122;37.876;2023-07-13T12:17:16;19.13;;;4.40;;
80823;SDS011;70538;59.122;37.876;2023-07-13T12:19:49;9.18;;;2.58;;
80823;SDS011;70538;59.122;37.876;2023-07-13T12:22:19;4.82;;;1.40;;
80823;SDS011;70538;59.122;37.876;2023-07-13T12:24:48;13.70;;;2.87;;
80823;SDS011;70538;59.122;37.876;2023-07-13T12:27:20;18.10;;;3.13;;
80823;SDS011;70538;59.122;37.876;2023-07-13T12:29:51;23.73;;;4.43;;
80823;SDS011;70538;59.122;37.876;2023-07-13T12:32:25;22.60;;;4.80;;
80823;SDS011;70538;59.122;37.876;2023-07-13T12:34:54;15.27;;;3.40;;
80823;SDS011;70538;59.122;37.876;2023-07-13T12:37:45;28.03;;;6.17;;
80823;SDS011;70538;59.122;37.876;2023-07-13T12:40:18;10.98;;;2.63;;
80823;SDS011;70538;59.122;37.876;2023-07-13T12:42:49;6.72;;;2.22;;
80823;SDS011;70538;59.122;37.876;2023-07-13T12:45:24;10.35;;;2.90;;
80823;SDS011;70538;59.122;37.876;2023-07-13T12:47:55;10.70;;;2.15;;
80823;SDS011;70538;59.122;37.876;2023-07-13T12:50:38;15.27;;;3.60;;
80823;SDS011;70538;59.122;37.876;2023-07-13T12:53:15;15.25;;;3.08;;
80823;SDS011;70538;59.122;37.876;2023-07-13T12:55:49;9.15;;;2.65;;
80823;SDS011;70538;59.122;37.876;2023-07-13T12:58:28;8.50;;;3.58;;
80823;SDS011;70538;59.122;37.876;2023-07-13T13:00:57;6.95;;;2.17;;
80823;SDS011;70538;59.122;37.876;2023-07-13T13:03:35;10.67;;;3.87;;
80823;SDS011;70538;59.122;37.876;2023-07-13T13:06:06;9.45;;;3.17;;
80823;SDS011;70538;59.122;37.876;2023-07-13T13:08:51;7.47;;;2.65;;
80823;SDS011;70538;59.122;37.876;2023-07-13T13:11:22;7.85;;;2.95;;
80823;SDS011;70538;59.122;37.876;2023-07-13T13:13:51;9.60;;;3.72;;
80823;SDS011;70538;59.122;37.876;2023-07-13T13:16:20;9.30;;;3.30;;
80823;SDS011;70538;59.122;37.876;2023-07-13T13:18:50;5.82;;;1.98;;
80823;SDS011;70538;59.122;37.876;2023-07-13T13:21:20;8.73;;;2.70;;
80823;SDS011;70538;59.122;37.876;2023-07-13T13:23:48;7.82;;;2.70;;
80823;SDS011;70538;59.122;37.876;2023-07-13T13:26:19;11.05;;;2.20;;
80823;SDS011;70538;59.122;37.876;2023-07-13T13:28:48;8.03;;;3.20;;
80823;SDS011;70538;59.122;37.876;2023-07-13T13:31:17;7.30;;;1.63;;
80823;SDS011;70538;59.122;37.876;2023-07-13T13:33:45;11.77;;;2.78;;
80823;SDS011;70538;59.122;37.876;2023-07-13T13:36:16;6.28;;;1.38;;
80823;SDS011;70538;59.122;37.876;2023-07-13T13:38:47;8.65;;;2.83;;
80823;SDS011;70538;59.122;37.876;2023-07-13T13:41:16;22.73;;;5.93;;
80823;SDS011;70538;59.122;37.876;2023-07-13T13:43:45;19.42;;;5.65;;
80823;SDS011;70538;59.122;37.876;2023-07-13T13:46:15;21.70;;;5.13;;
80823;SDS011;70538;59.122;37.876;2023-07-13T13:48:46;11.68;;;2.35;;
80823;SDS011;70538;59.122;37.876;2023-07-13T13:51:17;15.70;;;3.58;;
80823;SDS011;70538;59.122;37.876;2023-07-13T13:53:47;14.73;;;4.33;;
80823;SDS011;70538;59.122;37.876;2023-07-13T13:56:17;12.70;;;3.35;;
80823;SDS011;70538;59.122;37.876;2023-07-13T13:58:46;8.05;;;2.60;;
80823;SDS011;70538;59.122;37.876;2023-07-13T14:01:20;8.13;;;2.58;;
80823;SDS011;70538;59.122;37.876;2023-07-13T14:03:51;8.27;;;2.90;;
80823;SDS011;70538;59.122;37.876;2023-07-13T14:06:19;12.13;;;3.00;;
80823;SDS011;70538;59.122;37.876;2023-07-13T14:08:48;8.30;;;2.78;;
80823;SDS011;70538;59.122;37.876;2023-07-13T14:11:17;8.52;;;2.58;;
80823;SDS011;70538;59.122;37.876;2023-07-13T14:13:48;7.03;;;2.22;;
80823;SDS011;70538;59.122;37.876;2023-07-13T14:16:19;8.50;;;3.17;;
80823;SDS011;70538;59.122;37.876;2023-07-13T14:18:49;8.00;;;2.33;;
80823;SDS011;70538;59.122;37.876;2023-07-13T14:21:18;7.32;;;2.67;;
80823;SDS011;70538;59.122;37.876;2023-07-13T14:23:49;8.57;;;2.80;;
80823;SDS011;70538;59.122;37.876;2023-07-13T14:26:18;7.47;;;2.30;;
80823;SDS011;70538;59.122;37.876;2023-07-13T14:28:50;6.55;;;2.40;;
80823;SDS011;70538;59.122;37.876;2023-07-13T14:31:20;5.43;;;1.80;;
80823;SDS011;70538;59.122;37.876;2023-07-13T14:33:55;6.90;;;2.33;;
80823;SDS011;70538;59.122;37.876;2023-07-13T14:38:54;7.93;;;2.33;;
80823;SDS011;70538;59.122;37.876;2023-07-13T14:41:24;8.07;;;2.67;;
80823;SDS011;70538;59.122;37.876;2023-07-13T14:43:52;5.57;;;1.50;;
80823;SDS011;70538;59.122;37.876;2023-07-13T14:46:29;5.82;;;1.25;;
80823;SDS011;70538;59.122;37.876;2023-07-13T14:49:00;8.13;;;1.85;;
80823;SDS011;70538;59.122;37.876;2023-07-13T14:51:31;5.82;;;1.58;;
80823;SDS011;70538;59.122;37.876;2023-07-13T14:54:02;5.03;;;1.50;;
80823;SDS011;70538;59.122;37.876;2023-07-13T14:56:32;5.40;;;1.40;;
80823;SDS011;70538;59.122;37.876;2023-07-13T14:59:00;6.55;;;1.58;;
80823;SDS011;70538;59.122;37.876;2023-07-13T15:01:28;6.65;;;1.50;;
80823;SDS011;70538;59.122;37.876;2023-07-13T15:03:58;7.07;;;1.20;;
80823;SDS011;70538;59.122;37.876;2023-07-13T15:06:26;4.20;;;1.05;;
80823;SDS011;70538;59.122;37.876;2023-07-13T15:08:54;5.37;;;1.47;;
80823;SDS011;70538;59.122;37.876;2023-07-13T15:11:23;5.38;;;1.38;;
80823;SDS011;70538;59.122;37.876;2023-07-13T15:13:51;4.93;;;1.38;;
80823;SDS011;70538;59.122;37.876;2023-07-13T15:16:21;3.78;;;1.02;;
80823;SDS011;70538;59.122;37.876;2023-07-13T15:18:52;6.28;;;1.30;;